createdAt,value
2022-11-28T00:01:43.738Z,6.70
2022-11-28T00:04:11.831Z,7.00
2022-11-28T00:06:42.337Z,7.30
2022-11-28T00:09:09.596Z,8.10
2022-11-28T00:11:39.581Z,7.60
2022-11-28T00:14:07.627Z,7.23
2022-11-28T00:16:35.399Z,7.10
2022-11-28T00:19:04.031Z,7.03
2022-11-28T00:21:31.574Z,7.13
2022-11-28T00:24:00.339Z,7.40
2022-11-28T00:26:36.217Z,7.43
2022-11-28T00:29:04.432Z,6.97
2022-11-28T00:31:35.464Z,7.33
2022-11-28T00:34:03.193Z,7.80
2022-11-28T00:36:30.917Z,7.67
2022-11-28T00:38:58.624Z,8.27
2022-11-28T00:41:29.502Z,8.10
2022-11-28T00:43:57.281Z,8.40
2022-11-28T00:46:25.374Z,8.50
2022-11-28T00:48:53.183Z,9.00
2022-11-28T00:51:30.279Z,8.70
2022-11-28T00:53:59.173Z,9.50
2022-11-28T00:56:30.909Z,8.63
2022-11-28T00:58:58.508Z,10.20
2022-11-28T01:01:37.108Z,8.93
2022-11-28T01:04:08.308Z,9.03
2022-11-28T01:06:42.198Z,9.50
2022-11-28T01:09:13.720Z,9.10
2022-11-28T01:11:41.851Z,8.20
2022-11-28T01:14:09.736Z,8.73
2022-11-28T01:16:37.963Z,8.20
2022-11-28T01:19:05.951Z,8.90
2022-11-28T01:21:33.573Z,8.43
2022-11-28T01:24:01.029Z,8.73
2022-11-28T01:26:30.233Z,9.07
2022-11-28T01:28:59.358Z,10.30
2022-11-28T01:31:28.494Z,8.73
2022-11-28T01:33:56.913Z,10.83
2022-11-28T01:36:25.240Z,9.80
2022-11-28T01:38:52.655Z,10.10
2022-11-28T01:41:24.266Z,9.23
2022-11-28T01:44:01.637Z,10.57
2022-11-28T01:46:30.054Z,10.90
2022-11-28T01:49:02.762Z,10.50
2022-11-28T01:51:30.256Z,9.63
2022-11-28T01:53:57.671Z,11.07
2022-11-28T01:56:28.530Z,10.23
2022-11-28T01:59:02.355Z,10.13
2022-11-28T02:01:29.766Z,10.37
2022-11-28T02:03:58.547Z,7.63
2022-11-28T02:06:27.320Z,9.40
2022-11-28T02:08:56.658Z,7.67
2022-11-28T02:11:45.509Z,10.27
2022-11-28T02:14:41.433Z,8.97
2022-11-28T02:17:20.371Z,7.90
2022-11-28T02:20:32.392Z,8.07
2022-11-28T02:23:40.400Z,7.53
2022-11-28T02:26:35.796Z,4.90
2022-11-28T02:29:35.157Z,8.90
2022-11-28T02:32:36.598Z,8.87
2022-11-28T02:35:36.162Z,8.13
2022-11-28T02:38:18.537Z,8.43
2022-11-28T02:41:08.055Z,8.10
2022-11-28T02:44:02.723Z,9.33
2022-11-28T02:46:38.770Z,8.00
2022-11-28T02:49:11.735Z,7.87
2022-11-28T02:51:47.526Z,8.00
2022-11-28T02:54:18.283Z,7.63
2022-11-28T02:56:50.101Z,7.30
2022-11-28T02:59:39.099Z,7.23
2022-11-28T03:02:14.885Z,6.13
2022-11-28T03:04:55.626Z,7.47
2022-11-28T03:07:47.657Z,7.50
2022-11-28T03:10:23.896Z,7.30
2022-11-28T03:13:11.070Z,6.50
2022-11-28T03:15:52.825Z,6.43
2022-11-28T03:18:32.391Z,7.43
2022-11-28T03:21:36.743Z,8.20
2022-11-28T03:24:26.845Z,7.87
2022-11-28T03:27:07.722Z,6.80
2022-11-28T03:29:46.241Z,7.47
2022-11-28T03:32:19.852Z,7.10
2022-11-28T03:34:53.747Z,6.70
2022-11-28T03:37:27.018Z,8.33
2022-11-28T03:39:59.921Z,9.00
2022-11-28T03:42:31.468Z,7.00
2022-11-28T03:45:05.200Z,6.30
2022-11-28T03:47:41.115Z,7.10
2022-11-28T03:50:15.428Z,7.07
2022-11-28T03:52:48.826Z,7.70
2022-11-28T03:55:23.415Z,7.33
2022-11-28T03:58:02.670Z,7.27
2022-11-28T04:00:30.214Z,5.97
2022-11-28T04:03:12.181Z,6.70
2022-11-28T04:05:53.819Z,6.10
2022-11-28T04:08:36.803Z,7.13
2022-11-28T04:11:18.585Z,6.33
2022-11-28T04:14:00.507Z,5.83
2022-11-28T04:16:39.687Z,5.97
2022-11-28T04:19:18.861Z,6.33
2022-11-28T04:21:54.379Z,6.17
2022-11-28T04:24:28.693Z,6.83
2022-11-28T04:27:00.447Z,6.90
2022-11-28T04:29:33.325Z,5.43
2022-11-28T04:32:01.986Z,6.00
2022-11-28T04:34:32.688Z,5.97
2022-11-28T04:37:04.273Z,6.50
2022-11-28T04:39:36.694Z,6.30
2022-11-28T04:42:10.707Z,5.67
2022-11-28T04:44:45.450Z,5.73
2022-11-28T04:47:12.858Z,6.27
2022-11-28T04:49:40.479Z,7.20
2022-11-28T04:52:28.312Z,6.07
2022-11-28T04:55:22.372Z,7.10
2022-11-28T04:57:57.309Z,6.23
2022-11-28T05:00:26.127Z,6.67
2022-11-28T05:02:54.708Z,7.07
2022-11-28T05:05:24.925Z,6.20
2022-11-28T05:07:53.245Z,5.20
2022-11-28T05:10:21.007Z,6.63
2022-11-28T05:12:48.230Z,6.40
2022-11-28T05:15:19.166Z,6.40
2022-11-28T05:17:47.138Z,6.27
2022-11-28T05:20:15.418Z,5.40
2022-11-28T05:22:42.600Z,6.87
2022-11-28T05:25:09.915Z,5.67
2022-11-28T05:27:37.177Z,6.03
2022-11-28T05:30:07.311Z,5.67
2022-11-28T05:32:37.695Z,6.07
2022-11-28T05:35:05.783Z,5.90
2022-11-28T05:37:32.988Z,6.35
2022-11-28T05:40:00.237Z,6.60
2022-11-28T05:42:28.378Z,6.77
2022-11-28T05:44:56.085Z,6.07
2022-11-28T05:47:24.501Z,6.20
2022-11-28T05:49:52.251Z,5.83
2022-11-28T05:52:19.432Z,5.80
2022-11-28T05:54:46.673Z,5.67
2022-11-28T05:57:13.803Z,5.10
2022-11-28T05:59:41.463Z,4.80
2022-11-28T06:02:08.910Z,5.50
2022-11-28T06:04:36.269Z,6.57
2022-11-28T06:07:03.763Z,6.80
2022-11-28T06:09:30.935Z,5.80
2022-11-28T06:11:58.080Z,6.40
2022-11-28T06:14:25.280Z,7.25
2022-11-28T06:16:52.477Z,6.80
2022-11-28T06:19:19.940Z,5.67
2022-11-28T06:21:50.125Z,6.30
2022-11-28T06:24:17.457Z,5.93
2022-11-28T06:26:45.295Z,5.20
2022-11-28T06:29:12.430Z,5.40
2022-11-28T06:31:39.677Z,6.50
2022-11-28T06:34:06.870Z,5.53
2022-11-28T06:36:35.040Z,5.83
2022-11-28T06:39:02.258Z,5.80
2022-11-28T06:41:29.454Z,6.33
2022-11-28T06:44:00.780Z,5.57
2022-11-28T06:46:28.056Z,6.10
2022-11-28T06:48:55.300Z,6.80
2022-11-28T06:51:22.895Z,5.10
2022-11-28T06:53:50.178Z,5.13
2022-11-28T06:56:19.546Z,6.63
2022-11-28T06:58:48.537Z,6.70
2022-11-28T07:01:19.057Z,6.70
2022-11-28T07:03:47.584Z,6.10
2022-11-28T07:06:17.046Z,6.23
2022-11-28T07:08:45.534Z,5.20
2022-11-28T07:11:16.510Z,6.80
2022-11-28T07:13:45.918Z,5.50
2022-11-28T07:16:19.131Z,5.07
2022-11-28T07:18:47.039Z,5.57
2022-11-28T07:21:15.315Z,5.00
2022-11-28T07:23:43.922Z,5.50
2022-11-28T07:26:13.600Z,5.80
2022-11-28T07:28:41.289Z,6.80
2022-11-28T07:31:25.349Z,6.67
2022-11-28T07:33:53.246Z,6.77
2022-11-28T07:36:24.831Z,6.77
2022-11-28T07:38:54.503Z,6.23
2022-11-28T07:41:26.442Z,6.27
2022-11-28T07:43:56.988Z,6.70
2022-11-28T07:46:24.808Z,6.47
2022-11-28T07:48:52.918Z,7.13
2022-11-28T07:51:28.336Z,6.70
2022-11-28T07:53:56.195Z,7.27
2022-11-28T07:56:50.259Z,6.93
2022-11-28T07:59:18.060Z,7.27
2022-11-28T08:01:45.821Z,8.00
2022-11-28T08:04:13.103Z,6.90
2022-11-28T08:06:42.017Z,6.53
2022-11-28T08:09:12.858Z,8.03
2022-11-28T08:11:41.146Z,6.93
2022-11-28T08:14:08.628Z,7.43
2022-11-28T08:16:36.756Z,7.43
2022-11-28T08:19:33.677Z,11.15
2022-11-28T08:22:02.504Z,9.37
2022-11-28T08:24:55.556Z,8.70
2022-11-28T08:27:22.742Z,8.97
2022-11-28T08:29:53.516Z,8.43
2022-11-28T08:32:21.431Z,9.50
2022-11-28T08:34:48.674Z,9.40
2022-11-28T08:37:15.848Z,9.80
2022-11-28T08:39:44.230Z,8.93
2022-11-28T08:42:11.730Z,9.10
2022-11-28T08:44:38.891Z,9.93
2022-11-28T08:47:06.049Z,9.93
2022-11-28T08:49:33.805Z,9.10
2022-11-28T08:52:01.099Z,9.33
2022-11-28T08:54:28.323Z,9.80
2022-11-28T08:56:55.533Z,7.60
2022-11-28T08:59:23.168Z,8.00
2022-11-28T09:01:53.636Z,8.53
2022-11-28T09:04:21.876Z,10.57
2022-11-28T09:06:49.460Z,10.20
2022-11-28T09:09:16.642Z,9.90
2022-11-28T09:11:44.017Z,8.23
2022-11-28T09:14:11.477Z,9.30
2022-11-28T09:16:40.766Z,9.50
2022-11-28T09:19:09.133Z,9.40
2022-11-28T09:21:37.099Z,9.00
2022-11-28T09:24:04.667Z,10.70
2022-11-28T09:26:33.124Z,9.20
2022-11-28T09:29:00.661Z,9.30
2022-11-28T09:31:53.427Z,12.80
2022-11-28T09:34:21.265Z,9.30
2022-11-28T09:36:50.159Z,9.90
2022-11-28T09:39:17.743Z,10.60
2022-11-28T09:41:56.061Z,9.50
2022-11-28T09:44:50.421Z,10.40
2022-11-28T09:47:23.049Z,10.73
2022-11-28T09:49:55.547Z,11.00
2022-11-28T09:53:07.646Z,10.97
2022-11-28T09:55:41.966Z,10.30
2022-11-28T09:58:40.788Z,10.90
2022-11-28T10:01:10.641Z,10.33
2022-11-28T10:03:50.145Z,11.00
2022-11-28T10:06:23.521Z,10.40
2022-11-28T10:09:21.306Z,10.50
2022-11-28T10:11:58.849Z,11.03
2022-11-28T10:14:44.563Z,11.97
2022-11-28T10:17:46.007Z,11.77
2022-11-28T10:20:27.423Z,10.80
2022-11-28T10:22:59.330Z,10.50
2022-11-28T10:25:41.743Z,10.80
2022-11-28T10:28:21.538Z,11.77
2022-11-28T10:31:00.518Z,11.33
2022-11-28T10:33:40.047Z,13.37
2022-11-28T10:36:16.555Z,10.60
2022-11-28T10:38:44.448Z,11.00
2022-11-28T10:41:24.319Z,11.40
2022-11-28T10:44:05.332Z,11.77
2022-11-28T10:47:08.943Z,13.63
2022-11-28T10:49:47.866Z,10.40
2022-11-28T10:52:44.151Z,11.07
2022-11-28T10:55:23.931Z,17.42
2022-11-28T10:57:57.093Z,13.97
2022-11-28T11:00:24.968Z,12.63
2022-11-28T11:02:57.533Z,11.30
2022-11-28T11:05:26.803Z,11.37
2022-11-28T11:08:02.327Z,10.73
2022-11-28T11:10:49.163Z,11.47
2022-11-28T11:13:22.185Z,11.30
2022-11-28T11:15:57.693Z,12.73
2022-11-28T11:18:27.909Z,11.97
2022-11-28T11:21:14.549Z,11.80
2022-11-28T11:23:42.281Z,11.57
2022-11-28T11:26:28.679Z,12.40
2022-11-28T11:28:56.522Z,12.20
2022-11-28T11:31:27.699Z,10.47
2022-11-28T11:34:05.342Z,12.10
2022-11-28T11:36:35.587Z,11.97
2022-11-28T11:39:12.276Z,12.20
2022-11-28T11:41:45.178Z,13.80
2022-11-28T11:44:15.340Z,12.97
2022-11-28T11:47:05.256Z,11.23
2022-11-28T11:49:36.827Z,12.40
2022-11-28T11:52:15.503Z,12.50
2022-11-28T11:54:58.093Z,12.57
2022-11-28T11:57:37.765Z,12.73
2022-11-28T12:00:14.437Z,13.43
2022-11-28T12:03:00.407Z,12.03
2022-11-28T12:05:41.804Z,12.63
2022-11-28T12:08:48.059Z,12.17
2022-11-28T12:11:23.732Z,13.00
2022-11-28T12:13:52.178Z,12.73
2022-11-28T12:16:40.905Z,13.97
2022-11-28T12:19:32.069Z,12.30
2022-11-28T12:22:28.453Z,13.97
2022-11-28T12:25:14.345Z,12.37
2022-11-28T12:28:06.353Z,13.60
2022-11-28T12:30:56.712Z,13.57
2022-11-28T12:34:06.262Z,14.50
2022-11-28T12:36:48.962Z,13.87
2022-11-28T12:40:02.302Z,13.50
2022-11-28T12:42:46.350Z,14.60
2022-11-28T12:45:48.469Z,14.10
2022-11-28T12:48:53.421Z,13.20
2022-11-28T12:51:43.631Z,12.80
2022-11-28T12:54:25.722Z,13.70
2022-11-28T12:57:24.622Z,14.37
2022-11-28T13:00:11.265Z,13.07
2022-11-28T13:02:44.534Z,14.17
2022-11-28T13:05:19.233Z,21.73
2022-11-28T13:08:23.321Z,15.83
2022-11-28T13:11:00.936Z,15.43
2022-11-28T13:13:45.597Z,15.10
2022-11-28T13:16:46.279Z,17.98
2022-11-28T13:19:25.728Z,15.23
2022-11-28T13:21:59.730Z,16.63
2022-11-28T13:24:36.861Z,15.80
2022-11-28T13:27:42.410Z,16.13
2022-11-28T13:30:43.973Z,14.80
2022-11-28T13:33:36.788Z,15.60
2022-11-28T13:36:09.222Z,16.00
2022-11-28T13:39:11.846Z,15.70
2022-11-28T13:42:14.300Z,15.10
2022-11-28T13:44:58.441Z,15.30
2022-11-28T13:47:29.677Z,15.90
2022-11-28T13:50:32.739Z,15.70
2022-11-28T13:53:20.717Z,15.13
2022-11-28T13:56:12.875Z,16.00
2022-11-28T13:58:49.734Z,15.83
2022-11-28T14:01:21.755Z,14.63
2022-11-28T14:03:58.099Z,15.37
2022-11-28T14:06:36.918Z,15.73
2022-11-28T14:09:22.963Z,14.73
2022-11-28T14:12:03.839Z,14.00
2022-11-28T14:14:49.460Z,15.70
2022-11-28T14:17:22.739Z,16.90
2022-11-28T14:20:24.053Z,16.43
2022-11-28T14:23:28.072Z,14.93
2022-11-28T14:25:56.517Z,15.10
2022-11-28T14:28:36.729Z,16.87
2022-11-28T14:31:17.940Z,16.77
2022-11-28T14:33:47.532Z,15.67
2022-11-28T14:36:30.145Z,16.27
2022-11-28T14:39:17.055Z,15.13
2022-11-28T14:42:04.223Z,15.97
2022-11-28T14:44:57.119Z,17.80
2022-11-28T14:47:26.290Z,14.87
2022-11-28T14:50:20.531Z,15.97
2022-11-28T14:52:48.409Z,14.47
2022-11-28T14:55:21.861Z,17.30
2022-11-28T14:58:05.282Z,13.57
2022-11-28T15:00:48.286Z,15.47
2022-11-28T15:03:43.001Z,18.42
2022-11-28T15:06:28.742Z,14.80
2022-11-28T15:08:56.979Z,15.90
2022-11-28T15:12:02.414Z,16.07
2022-11-28T15:14:31.943Z,13.87
2022-11-28T15:17:05.339Z,15.10
2022-11-28T15:19:48.948Z,14.20
2022-11-28T15:22:46.988Z,14.37
2022-11-28T15:25:23.396Z,20.05
2022-11-28T15:27:51.686Z,17.83
2022-11-28T15:30:23.940Z,16.27
2022-11-28T15:32:58.155Z,13.80
2022-11-28T15:35:26.972Z,13.97
2022-11-28T15:37:58.183Z,15.93
2022-11-28T15:40:34.566Z,13.20
2022-11-28T15:43:08.085Z,14.30
2022-11-28T15:45:42.137Z,14.03
2022-11-28T15:48:39.011Z,16.00
2022-11-28T15:51:21.695Z,14.13
2022-11-28T15:53:49.059Z,13.80
2022-11-28T15:56:16.730Z,15.33
2022-11-28T15:58:44.879Z,15.97
2022-11-28T16:01:22.560Z,14.50
2022-11-28T16:04:17.113Z,13.80
2022-11-28T16:06:50.268Z,14.20
2022-11-28T16:09:18.337Z,14.13
2022-11-28T16:11:49.819Z,14.23
2022-11-28T16:14:25.495Z,15.03
2022-11-28T16:16:54.256Z,15.67
2022-11-28T16:19:40.301Z,15.90
2022-11-28T16:22:19.802Z,16.53
2022-11-28T16:24:52.532Z,14.90
2022-11-28T16:27:36.127Z,14.60
2022-11-28T16:30:26.716Z,21.75
2022-11-28T16:32:56.421Z,17.97
2022-11-28T16:35:40.398Z,16.73
2022-11-28T16:38:23.505Z,14.97
2022-11-28T16:40:51.946Z,16.50
2022-11-28T16:43:30.902Z,14.63
2022-11-28T16:46:00.126Z,14.70
2022-11-28T16:48:30.788Z,14.83
2022-11-28T16:51:13.287Z,14.30
2022-11-28T16:53:46.383Z,14.57
2022-11-28T16:56:31.861Z,15.23
2022-11-28T16:59:01.931Z,14.17
2022-11-28T17:01:31.106Z,16.37
2022-11-28T17:03:59.079Z,14.30
2022-11-28T17:06:36.744Z,14.67
2022-11-28T17:09:08.843Z,14.40
2022-11-28T17:11:42.716Z,15.47
2022-11-28T17:14:13.853Z,14.40
2022-11-28T17:16:42.654Z,14.40
2022-11-28T17:19:10.331Z,13.80
2022-11-28T17:21:48.495Z,14.20
2022-11-28T17:24:21.869Z,14.13
2022-11-28T17:26:50.062Z,14.97
2022-11-28T17:29:18.250Z,15.03
2022-11-28T17:31:47.246Z,15.37
2022-11-28T17:34:17.695Z,16.73
2022-11-28T17:36:45.461Z,14.03
2022-11-28T17:39:13.067Z,15.37
2022-11-28T17:41:41.225Z,15.70
2022-11-28T17:44:20.498Z,15.40
2022-11-28T17:46:49.786Z,15.20
2022-11-28T17:49:17.556Z,15.23
2022-11-28T17:51:45.033Z,13.93
2022-11-28T17:54:17.767Z,15.93
2022-11-28T17:56:46.452Z,13.70
2022-11-28T17:59:15.768Z,14.87
2022-11-28T18:01:44.266Z,16.47
2022-11-28T18:04:12.381Z,15.30
2022-11-28T18:06:44.016Z,13.40
2022-11-28T18:09:13.479Z,16.03
2022-11-28T18:11:41.914Z,17.50
2022-11-28T18:14:10.035Z,15.87
2022-11-28T18:16:40.264Z,15.20
2022-11-28T18:19:07.909Z,14.60
2022-11-28T18:21:35.428Z,15.40
2022-11-28T18:24:02.640Z,14.53
2022-11-28T18:26:30.442Z,16.20
2022-11-28T18:28:58.906Z,15.97
2022-11-28T18:31:28.805Z,15.17
2022-11-28T18:34:04.065Z,14.70
2022-11-28T18:36:35.967Z,15.70
2022-11-28T18:39:06.518Z,14.40
2022-11-28T18:41:34.368Z,15.73
2022-11-28T18:44:04.445Z,16.07
2022-11-28T18:46:33.137Z,17.17
2022-11-28T18:49:02.036Z,16.00
2022-11-28T18:51:32.066Z,16.00
2022-11-28T18:54:02.195Z,15.53
2022-11-28T18:56:30.317Z,17.20
2022-11-28T18:58:58.389Z,15.30
2022-11-28T19:01:30.812Z,15.30
2022-11-28T19:04:07.170Z,16.00
2022-11-28T19:06:36.136Z,18.07
2022-11-28T19:09:07.883Z,17.80
2022-11-28T19:11:35.749Z,17.43
2022-11-28T19:14:04.362Z,17.30
2022-11-28T19:16:34.948Z,17.67
2022-11-28T19:19:04.750Z,18.70
2022-11-28T19:21:34.760Z,16.97
2022-11-28T19:24:03.457Z,16.20
2022-11-28T19:26:37.209Z,18.23
2022-11-28T19:29:05.725Z,17.60
2022-11-28T19:31:35.811Z,17.57
2022-11-28T19:34:07.756Z,19.03
2022-11-28T19:36:39.336Z,19.80
2022-11-28T19:39:09.143Z,17.90
2022-11-28T19:41:37.224Z,18.67
2022-11-28T19:44:04.599Z,18.73
2022-11-28T19:46:35.706Z,18.80
2022-11-28T19:49:05.778Z,18.57
2022-11-28T19:51:35.047Z,19.00
2022-11-28T19:54:04.212Z,18.17
2022-11-28T19:56:34.215Z,17.53
2022-11-28T19:59:02.321Z,17.60
2022-11-28T20:01:29.659Z,17.73
2022-11-28T20:03:59.152Z,19.80
2022-11-28T20:06:30.827Z,18.67
2022-11-28T20:09:11.197Z,18.97
2022-11-28T20:11:43.565Z,19.27
2022-11-28T20:14:19.024Z,21.30
2022-11-28T20:16:47.067Z,19.77
2022-11-28T20:19:17.666Z,19.23
2022-11-28T20:21:46.244Z,22.70
2022-11-28T20:24:14.691Z,20.27
2022-11-28T20:26:44.332Z,18.53
2022-11-28T20:29:15.821Z,18.77
2022-11-28T20:31:47.561Z,22.43
2022-11-28T20:34:19.540Z,19.57
2022-11-28T20:36:53.682Z,19.43
2022-11-28T20:39:21.753Z,20.77
2022-11-28T20:41:49.108Z,19.43
2022-11-28T20:44:18.132Z,18.80
2022-11-28T20:46:46.281Z,20.00
2022-11-28T20:49:15.469Z,19.17
2022-11-28T20:51:43.134Z,17.47
2022-11-28T20:54:12.956Z,19.40
2022-11-28T20:59:28.237Z,16.97
2022-11-28T21:01:55.574Z,19.03
2022-11-28T21:04:22.921Z,22.63
2022-11-28T21:06:50.099Z,16.80
2022-11-28T21:09:19.928Z,20.90
2022-11-28T21:11:57.958Z,20.07
2022-11-28T21:14:27.834Z,22.80
2022-11-28T21:16:56.341Z,22.30
2022-11-28T21:19:23.879Z,20.93
2022-11-28T21:21:51.073Z,22.03
2022-11-28T21:24:18.260Z,20.20
2022-11-28T21:26:51.373Z,21.77
2022-11-28T21:29:21.896Z,20.20
2022-11-28T21:31:49.332Z,23.80
2022-11-28T21:34:18.951Z,20.70
2022-11-28T21:36:47.414Z,20.80
2022-11-28T21:39:17.297Z,19.67
2022-11-28T21:41:44.985Z,20.30
2022-11-28T21:44:12.812Z,20.60
2022-11-28T21:46:40.514Z,21.30
2022-11-28T21:49:08.114Z,20.47
2022-11-28T21:51:39.643Z,18.87
2022-11-28T21:54:06.758Z,20.27
2022-11-28T21:56:34.822Z,19.87
2022-11-28T21:59:02.332Z,18.00
2022-11-28T22:01:29.724Z,20.47
2022-11-28T22:04:02.470Z,18.63
2022-11-28T22:06:31.878Z,18.93
2022-11-28T22:09:08.597Z,20.67
2022-11-28T22:11:37.688Z,20.77
2022-11-28T22:14:05.499Z,17.47
2022-11-28T22:16:33.246Z,20.00
2022-11-28T22:19:00.950Z,20.10
2022-11-28T22:21:51.551Z,20.40
2022-11-28T22:24:17.003Z,20.33
2022-11-28T22:26:44.521Z,19.53
2022-11-28T22:29:13.129Z,21.17
2022-11-28T22:31:41.545Z,20.63
2022-11-28T22:34:09.484Z,25.27
2022-11-28T22:36:38.347Z,21.67
2022-11-28T22:39:06.371Z,23.97
2022-11-28T22:41:34.187Z,23.30
2022-11-28T22:44:03.908Z,20.40
2022-11-28T22:46:32.742Z,20.30
2022-11-28T22:49:01.671Z,23.40
2022-11-28T22:51:30.016Z,23.23
2022-11-28T22:54:01.029Z,21.57
2022-11-28T22:56:32.300Z,21.00
2022-11-28T22:59:00.929Z,25.30
2022-11-28T23:01:30.653Z,19.40
2022-11-28T23:03:59.239Z,21.80
2022-11-28T23:06:29.014Z,24.47
2022-11-28T23:08:58.303Z,19.87
2022-11-28T23:11:32.658Z,23.80
2022-11-28T23:14:01.008Z,22.80
2022-11-28T23:16:34.295Z,20.70
2022-11-28T23:19:04.706Z,24.07
2022-11-28T23:21:36.289Z,19.67
2022-11-28T23:24:06.511Z,20.10
2022-11-28T23:26:34.667Z,22.87
2022-11-28T23:29:04.455Z,20.93
2022-11-28T23:31:33.974Z,21.40
2022-11-28T23:34:01.576Z,23.43
2022-11-28T23:36:41.539Z,21.67
2022-11-28T23:39:18.306Z,23.23
2022-11-28T23:41:46.146Z,23.10
2022-11-28T23:44:15.719Z,25.20
2022-11-28T23:46:43.934Z,23.10
2022-11-28T23:49:12.023Z,22.73
2022-11-28T23:51:40.870Z,21.40
2022-11-28T23:54:09.216Z,22.53
2022-11-28T23:56:38.460Z,23.10
2022-11-28T23:59:09.032Z,23.57
